LFRH 301030Z AUTO 09014KT CAVOK 24/06 Q1018 TEMPO 16010G20KT

ElémentsDécodage
LFRH Station météo située sur l'aérodrome de LORIENT Lann-Bihoué
301030Z émis le 30 du mois à 10h30 UTC
AUTO Bulletin édité par un automate
09014KT vent du 090°, 14 noeuds
CAVOK Ceiling And Visibility OK
- Visibilité de 10 Km ou plus
- Pas de nuage au-dessous de 1500m ou au-dessous de l'altitude minimale du secteur la plus élevée (si>1500m) et absence de CB
- pas de temps présent significatif
24/06 température 24°C, point de rosée 06°C
 soit une humidité relative de 31%
Q1018 la pression au niveau de la mer (QNH) est de 1018 hPa
TEMPO fluctuation temporaire prévue
16010G20KT vent du 160°, moyenne: 10 noeuds, avec rafales à 20 noeuds